Time;durP1;ratioP1;P1;durP2;ratioP2;P2;SDS_P1;SDS_P2;PMS_P1;PMS_P2;Temp;Humidity;BMP_temperature;BMP_pressure;BME280_temperature;BME280_humidity;BME280_pressure;Samples;Min_cycle;Max_cycle;Signal;HPM_P1;HPM_P2
2024/01/04 00:01:20;;;;;;;16.10;5.30;;;;;;;;;;5028255;28;20082;-65
2024/01/04 00:03:45;;;;;;;12.33;5.30;;;;;;;;;;5027756;28;20021;-65
2024/01/04 00:06:11;;;;;;;11.97;4.60;;;;;;;;;;5029400;28;20029;-65
2024/01/04 00:08:36;;;;;;;12.73;5.00;;;;;;;;;;5028939;28;20018;-65
2024/01/04 00:11:06;;;;;;;11.23;4.43;;;;;;;;;;5028009;28;20022;-65
2024/01/04 00:13:31;;;;;;;12.30;5.17;;;;;;;;;;5028332;28;20017;-68
2024/01/04 00:15:57;;;;;;;15.87;5.77;;;;;;;;;;5027830;28;20512;-68
2024/01/04 00:18:22;;;;;;;15.33;5.20;;;;;;;;;;5027431;28;20256;-67
2024/01/04 00:20:47;;;;;;;11.20;4.70;;;;;;;;;;5028972;28;20032;-67
2024/01/04 00:23:12;;;;;;;14.07;4.70;;;;;;;;;;5028340;28;20442;-67
2024/01/04 00:25:38;;;;;;;13.23;4.43;;;;;;;;;;5028928;28;20025;-66
2024/01/04 00:28:03;;;;;;;9.30;3.97;;;;;;;;;;5027907;28;20120;-66
2024/01/04 00:30:28;;;;;;;14.43;3.37;;;;;;;;;;5028710;28;20048;-66
2024/01/04 00:32:53;;;;;;;11.23;3.53;;;;;;;;;;5028840;28;20404;-66
2024/01/04 00:35:19;;;;;;;13.13;3.80;;;;;;;;;;5028449;28;20068;-65
2024/01/04 00:37:44;;;;;;;10.70;3.07;;;;;;;;;;5028855;28;20030;-66
2024/01/04 00:40:09;;;;;;;10.43;3.47;;;;;;;;;;5027028;28;20025;-65
2024/01/04 00:42:35;;;;;;;8.70;3.30;;;;;;;;;;5027272;28;20010;-66
2024/01/04 00:45:00;;;;;;;11.93;4.07;;;;;;;;;;5028391;28;20026;-65
2024/01/04 00:47:26;;;;;;;12.00;3.53;;;;;;;;;;5031638;28;20022;-65
2024/01/04 00:49:51;;;;;;;6.53;2.57;;;;;;;;;;5032512;28;20481;-65
2024/01/04 00:52:16;;;;;;;9.00;3.40;;;;;;;;;;5032209;28;20056;-65
2024/01/04 00:54:41;;;;;;;9.23;3.27;;;;;;;;;;5029218;28;20029;-65
2024/01/04 00:57:08;;;;;;;11.00;3.57;;;;;;;;;;5031737;28;20097;-65
2024/01/04 00:59:33;;;;;;;8.60;3.10;;;;;;;;;;5031878;28;20022;-65
2024/01/04 01:01:58;;;;;;;9.17;3.30;;;;;;;;;;5032137;28;20063;-65
2024/01/04 01:04:23;;;;;;;8.73;2.67;;;;;;;;;;5032455;28;20018;-65
2024/01/04 01:06:49;;;;;;;9.30;2.97;;;;;;;;;;5032548;28;20021;-65
2024/01/04 01:09:14;;;;;;;7.97;2.43;;;;;;;;;;5030587;28;20489;-65
2024/01/04 01:11:39;;;;;;;8.77;2.80;;;;;;;;;;5030951;28;20029;-65
2024/01/04 01:14:05;;;;;;;8.40;2.60;;;;;;;;;;5029571;28;20030;-65
2024/01/04 01:16:30;;;;;;;8.70;3.13;;;;;;;;;;5031924;28;20377;-66
2024/01/04 01:18:55;;;;;;;9.50;3.00;;;;;;;;;;5031829;28;20077;-65
2024/01/04 01:21:20;;;;;;;7.10;2.40;;;;;;;;;;5031958;28;20029;-65
2024/01/04 01:23:46;;;;;;;5.30;2.43;;;;;;;;;;5030932;28;20493;-65
2024/01/04 01:26:11;;;;;;;5.37;2.17;;;;;;;;;;5031879;28;20014;-65
2024/01/04 01:28:36;;;;;;;4.60;2.10;;;;;;;;;;5031205;28;20059;-65
2024/01/04 01:31:01;;;;;;;5.87;2.10;;;;;;;;;;5031432;28;20025;-64
2024/01/04 01:33:27;;;;;;;4.97;1.70;;;;;;;;;;5031443;28;20029;-65
2024/01/04 01:35:52;;;;;;;3.40;1.40;;;;;;;;;;5029544;28;20021;-64
2024/01/04 01:38:17;;;;;;;3.60;1.23;;;;;;;;;;5031417;28;20024;-65
2024/01/04 01:40:43;;;;;;;3.57;1.30;;;;;;;;;;5030209;28;20105;-64
2024/01/04 01:43:08;;;;;;;2.63;1.30;;;;;;;;;;5031061;28;20052;-65
2024/01/04 01:45:33;;;;;;;3.17;1.13;;;;;;;;;;5029681;28;20369;-65
2024/01/04 01:47:59;;;;;;;6.70;1.50;;;;;;;;;;5031218;28;20104;-65
2024/01/04 01:50:24;;;;;;;6.20;1.37;;;;;;;;;;5030238;28;20462;-64
2024/01/04 01:52:52;;;;;;;5.30;1.43;;;;;;;;;;5030787;28;20029;-65
2024/01/04 01:55:19;;;;;;;2.93;1.30;;;;;;;;;;5030156;28;20025;-65
2024/01/04 01:57:44;;;;;;;4.60;1.77;;;;;;;;;;5031106;28;20112;-65
2024/01/04 02:00:10;;;;;;;3.30;1.50;;;;;;;;;;5029693;28;20120;-65
2024/01/04 02:02:36;;;;;;;4.90;1.83;;;;;;;;;;5030704;28;20519;-65
2024/01/04 02:05:02;;;;;;;5.87;1.50;;;;;;;;;;5028223;28;20021;-64
2024/01/04 02:07:27;;;;;;;3.10;1.30;;;;;;;;;;5030293;28;20098;-65
2024/01/04 02:09:52;;;;;;;3.43;1.20;;;;;;;;;;5028230;28;20028;-65
2024/01/04 02:12:17;;;;;;;2.77;1.00;;;;;;;;;;5028386;28;20505;-65
2024/01/04 02:14:43;;;;;;;3.00;1.40;;;;;;;;;;5030413;28;20026;-65
2024/01/04 02:17:09;;;;;;;3.43;1.33;;;;;;;;;;5029864;28;20021;-65
2024/01/04 02:19:34;;;;;;;3.63;1.50;;;;;;;;;;5031022;28;20053;-65
2024/01/04 02:22:00;;;;;;;3.77;1.50;;;;;;;;;;5027549;28;20440;-65
2024/01/04 02:24:27;;;;;;;4.93;1.77;;;;;;;;;;5030090;28;21375;-65
2024/01/04 02:26:54;;;;;;;5.50;1.70;;;;;;;;;;5029630;28;20543;-65
2024/01/04 02:29:19;;;;;;;3.87;1.63;;;;;;;;;;5028212;28;20034;-65
2024/01/04 02:31:45;;;;;;;4.63;2.00;;;;;;;;;;5029964;28;20087;-65
2024/01/04 02:34:10;;;;;;;7.10;2.30;;;;;;;;;;5030294;28;20163;-66
2024/01/04 02:36:36;;;;;;;6.53;2.40;;;;;;;;;;5029847;28;20652;-66
2024/01/04 02:39:01;;;;;;;8.77;2.23;;;;;;;;;;5029694;28;20036;-66
2024/01/04 02:41:26;;;;;;;5.93;1.97;;;;;;;;;;5029213;28;20167;-65
2024/01/04 02:43:51;;;;;;;5.43;2.70;;;;;;;;;;5029392;28;20026;-66
2024/01/04 02:46:17;;;;;;;5.10;2.10;;;;;;;;;;5030166;28;20432;-66
2024/01/04 02:48:42;;;;;;;6.63;1.80;;;;;;;;;;5030234;28;20037;-65
2024/01/04 02:51:08;;;;;;;6.87;1.93;;;;;;;;;;5029487;28;20032;-65
2024/01/04 02:53:33;;;;;;;7.30;1.90;;;;;;;;;;5029820;28;20382;-65
2024/01/04 02:55:58;;;;;;;4.60;1.73;;;;;;;;;;5029305;28;20043;-65
2024/01/04 02:58:24;;;;;;;4.20;1.80;;;;;;;;;;5030039;28;20029;-65
2024/01/04 03:00:49;;;;;;;2.63;1.20;;;;;;;;;;5029099;28;20025;-65
2024/01/04 03:03:14;;;;;;;2.90;1.20;;;;;;;;;;5028937;28;20030;-65
2024/01/04 03:05:39;;;;;;;2.80;1.10;;;;;;;;;;5030418;28;20030;-64
2024/01/04 03:08:05;;;;;;;3.00;1.10;;;;;;;;;;5027871;28;20386;-65
2024/01/04 03:10:30;;;;;;;2.93;1.10;;;;;;;;;;5028976;28;20029;-65
2024/01/04 03:12:55;;;;;;;6.47;1.40;;;;;;;;;;5028375;28;20387;-65
2024/01/04 03:15:21;;;;;;;3.47;1.33;;;;;;;;;;5029266;28;20123;-65
2024/01/04 03:17:46;;;;;;;3.53;1.20;;;;;;;;;;5028574;28;20040;-65
2024/01/04 03:20:11;;;;;;;3.60;1.27;;;;;;;;;;5029033;28;20460;-65
2024/01/04 03:22:36;;;;;;;4.53;1.30;;;;;;;;;;5029270;28;20014;-64
2024/01/04 03:25:02;;;;;;;2.57;0.90;;;;;;;;;;5028845;28;20453;-64
2024/01/04 03:27:28;;;;;;;3.83;1.40;;;;;;;;;;5029549;28;20037;-64
2024/01/04 03:29:55;;;;;;;2.37;1.10;;;;;;;;;;5028223;28;20029;-65
2024/01/04 03:32:20;;;;;;;3.00;1.07;;;;;;;;;;5029040;28;20021;-64
2024/01/04 03:34:45;;;;;;;2.37;0.83;;;;;;;;;;5029534;28;20363;-64
2024/01/04 03:37:10;;;;;;;3.63;0.90;;;;;;;;;;5028539;28;20033;-64
2024/01/04 03:39:36;;;;;;;3.07;0.93;;;;;;;;;;5029205;28;20061;-64
2024/01/04 03:42:01;;;;;;;1.67;0.80;;;;;;;;;;5028808;28;20022;-64
2024/01/04 03:44:26;;;;;;;3.63;1.00;;;;;;;;;;5029529;28;20095;-64
2024/01/04 03:46:51;;;;;;;2.63;1.00;;;;;;;;;;5028772;28;20122;-64
2024/01/04 03:49:17;;;;;;;2.00;0.80;;;;;;;;;;5029334;28;20389;-64
2024/01/04 03:51:42;;;;;;;5.83;1.00;;;;;;;;;;5026962;28;20028;-64
2024/01/04 03:54:07;;;;;;;3.97;1.10;;;;;;;;;;5029189;28;20171;-64
2024/01/04 03:56:32;;;;;;;3.73;1.10;;;;;;;;;;5029842;28;20033;-64
2024/01/04 03:58:58;;;;;;;3.23;1.20;;;;;;;;;;5028579;28;20524;-64
2024/01/04 04:01:23;;;;;;;3.63;1.07;;;;;;;;;;5028518;28;20029;-64
2024/01/04 04:03:48;;;;;;;4.87;1.30;;;;;;;;;;5028209;28;20018;-64
2024/01/04 04:06:13;;;;;;;3.90;1.30;;;;;;;;;;5027599;28;20035;-64
2024/01/04 04:08:39;;;;;;;4.10;1.17;;;;;;;;;;5028789;28;20389;-65
2024/01/04 04:11:13;;;;;;;1.87;0.93;;;;;;;;;;5028865;28;20041;-64
2024/01/04 04:13:39;;;;;;;3.00;1.00;;;;;;;;;;5028389;28;20065;-64
2024/01/04 04:16:04;;;;;;;2.33;1.00;;;;;;;;;;5029112;28;20126;-64
2024/01/04 04:18:29;;;;;;;2.93;1.20;;;;;;;;;;5028777;28;20046;-65
2024/01/04 04:20:55;;;;;;;2.97;1.10;;;;;;;;;;5028333;28;20088;-64
2024/01/04 04:23:20;;;;;;;8.30;1.40;;;;;;;;;;5032409;28;20434;-64
2024/01/04 04:25:45;;;;;;;5.50;1.10;;;;;;;;;;5032411;28;20444;-64
2024/01/04 04:28:11;;;;;;;3.87;1.30;;;;;;;;;;5030424;28;20048;-64
2024/01/04 04:30:37;;;;;;;3.10;1.10;;;;;;;;;;5031253;28;20061;-64
2024/01/04 04:33:02;;;;;;;4.03;1.07;;;;;;;;;;5032626;28;20325;-64
2024/01/04 04:35:27;;;;;;;3.70;0.97;;;;;;;;;;5031339;28;20030;-64
2024/01/04 04:37:53;;;;;;;2.73;0.90;;;;;;;;;;5031472;28;20087;-64
2024/01/04 04:40:18;;;;;;;3.87;0.90;;;;;;;;;;5031256;28;20076;-64
2024/01/04 04:42:43;;;;;;;2.30;1.00;;;;;;;;;;5032444;28;20018;-65
2024/01/04 04:45:08;;;;;;;2.80;1.00;;;;;;;;;;5032260;28;20052;-64
2024/01/04 04:47:34;;;;;;;1.97;0.70;;;;;;;;;;5032385;28;20044;-64
2024/01/04 04:49:59;;;;;;;2.73;0.80;;;;;;;;;;5029152;28;20040;-64
2024/01/04 04:52:24;;;;;;;4.83;0.80;;;;;;;;;;5032367;28;20139;-64
2024/01/04 04:54:49;;;;;;;2.03;0.90;;;;;;;;;;5032153;28;20701;-64
2024/01/04 04:57:15;;;;;;;2.63;0.80;;;;;;;;;;5032008;28;20083;-64
2024/01/04 04:59:40;;;;;;;1.63;0.90;;;;;;;;;;5031498;28;20088;-64
2024/01/04 05:02:05;;;;;;;2.70;0.80;;;;;;;;;;5031100;28;20025;-62
2024/01/04 05:04:31;;;;;;;2.87;0.97;;;;;;;;;;5031416;28;20032;-62
2024/01/04 05:06:56;;;;;;;3.37;1.00;;;;;;;;;;5031954;28;20556;-61
2024/01/04 05:09:22;;;;;;;4.80;1.00;;;;;;;;;;5031421;28;20041;-63
2024/01/04 05:11:47;;;;;;;3.57;1.00;;;;;;;;;;5030910;28;20448;-62
2024/01/04 05:14:12;;;;;;;6.37;1.00;;;;;;;;;;5030935;28;20030;-62
2024/01/04 05:16:37;;;;;;;4.33;0.90;;;;;;;;;;5030493;28;20038;-61
2024/01/04 05:19:03;;;;;;;3.67;1.10;;;;;;;;;;5031800;28;20057;-61
2024/01/04 05:21:32;;;;;;;4.00;0.80;;;;;;;;;;5030962;28;20539;-62
2024/01/04 05:23:57;;;;;;;2.63;1.07;;;;;;;;;;5030962;28;20133;-62
2024/01/04 05:26:22;;;;;;;4.63;1.13;;;;;;;;;;5031441;28;20163;-61
2024/01/04 05:28:48;;;;;;;4.37;1.10;;;;;;;;;;5030629;28;20029;-63
2024/01/04 05:31:15;;;;;;;3.50;1.27;;;;;;;;;;5030508;28;20163;-62
2024/01/04 05:33:40;;;;;;;4.00;1.20;;;;;;;;;;5030610;28;20037;-62
2024/01/04 05:36:06;;;;;;;4.40;1.17;;;;;;;;;;5028721;28;20029;-63
2024/01/04 05:38:31;;;;;;;3.40;0.90;;;;;;;;;;5029704;28;20132;-62
2024/01/04 05:40:57;;;;;;;3.47;1.00;;;;;;;;;;5030421;28;20112;-62
2024/01/04 05:43:22;;;;;;;3.57;1.20;;;;;;;;;;5029191;28;20036;-63
2024/01/04 05:45:47;;;;;;;2.50;1.00;;;;;;;;;;5028416;28;20022;-62
2024/01/04 05:48:12;;;;;;;9.37;1.57;;;;;;;;;;5028441;28;20104;-62
2024/01/04 05:50:38;;;;;;;3.93;1.23;;;;;;;;;;5027413;28;20406;-62
2024/01/04 05:53:03;;;;;;;4.73;1.10;;;;;;;;;;5030364;28;20132;-62
2024/01/04 05:55:30;;;;;;;8.30;1.20;;;;;;;;;;5028927;28;20033;-62
2024/01/04 05:57:55;;;;;;;5.17;1.10;;;;;;;;;;5031083;28;20446;-62
2024/01/04 06:00:20;;;;;;;4.00;1.00;;;;;;;;;;5030330;28;20115;-61
2024/01/04 06:02:46;;;;;;;3.33;0.90;;;;;;;;;;5030459;28;20454;-63
2024/01/04 06:05:12;;;;;;;5.13;1.20;;;;;;;;;;5029811;28;20386;-61
2024/01/04 06:07:37;;;;;;;1.73;0.90;;;;;;;;;;5030247;28;20029;-61
2024/01/04 06:10:02;;;;;;;3.40;1.20;;;;;;;;;;5030449;28;20037;-62
2024/01/04 06:12:28;;;;;;;2.87;1.50;;;;;;;;;;5029779;28;20378;-64
2024/01/04 06:14:53;;;;;;;3.67;1.10;;;;;;;;;;5028959;28;20083;-63
2024/01/04 06:17:18;;;;;;;4.33;1.70;;;;;;;;;;5030623;28;20034;-63
2024/01/04 06:19:44;;;;;;;5.00;1.20;;;;;;;;;;5029456;28;20457;-63
2024/01/04 06:22:09;;;;;;;2.20;0.87;;;;;;;;;;5031131;28;20026;-63
2024/01/04 06:24:35;;;;;;;3.73;1.33;;;;;;;;;;5029898;28;20060;-63
2024/01/04 06:27:00;;;;;;;4.87;1.10;;;;;;;;;;5030261;28;20029;-63
2024/01/04 06:29:25;;;;;;;4.87;1.20;;;;;;;;;;5028338;28;20022;-64
2024/01/04 06:31:51;;;;;;;4.50;1.13;;;;;;;;;;5029734;28;20087;-63
2024/01/04 06:34:16;;;;;;;3.23;1.10;;;;;;;;;;5029319;28;20079;-64
2024/01/04 06:36:41;;;;;;;3.20;1.30;;;;;;;;;;5030069;28;20092;-64
2024/01/04 06:39:07;;;;;;;4.87;1.30;;;;;;;;;;5029784;28;20033;-63
2024/01/04 06:41:33;;;;;;;3.30;1.30;;;;;;;;;;5028737;28;20017;-63
2024/01/04 06:43:59;;;;;;;5.40;1.33;;;;;;;;;;5029585;28;20092;-64
2024/01/04 06:46:25;;;;;;;5.70;1.30;;;;;;;;;;5027708;28;20029;-63
2024/01/04 06:48:50;;;;;;;5.13;1.30;;;;;;;;;;5029901;28;20508;-64
2024/01/04 06:51:15;;;;;;;3.43;1.17;;;;;;;;;;5030023;28;20065;-63
2024/01/04 06:53:40;;;;;;;6.17;1.40;;;;;;;;;;5029871;28;20029;-64
2024/01/04 06:56:06;;;;;;;5.33;1.33;;;;;;;;;;5030228;28;20062;-64
2024/01/04 06:58:32;;;;;;;3.77;1.37;;;;;;;;;;5030382;28;20025;-64
2024/01/04 07:00:57;;;;;;;4.13;1.20;;;;;;;;;;5029819;28;20362;-64
2024/01/04 07:03:23;;;;;;;3.47;1.30;;;;;;;;;;5028970;28;20377;-63
2024/01/04 07:05:49;;;;;;;4.97;1.53;;;;;;;;;;5029148;28;20022;-64
2024/01/04 07:08:14;;;;;;;4.23;1.70;;;;;;;;;;5029182;28;20037;-64
2024/01/04 07:10:42;;;;;;;3.97;1.53;;;;;;;;;;5029264;28;20171;-65
2024/01/04 07:13:07;;;;;;;3.33;1.33;;;;;;;;;;5029503;28;20060;-65
2024/01/04 07:15:33;;;;;;;7.13;1.93;;;;;;;;;;5028968;28;20073;-65
2024/01/04 07:17:58;;;;;;;3.73;1.80;;;;;;;;;;5029336;28;20017;-65
2024/01/04 07:20:23;;;;;;;2.93;1.43;;;;;;;;;;5029421;28;20413;-65
2024/01/04 07:22:52;;;;;;;3.83;1.80;;;;;;;;;;5029788;28;20044;-65
2024/01/04 07:25:17;;;;;;;5.20;1.87;;;;;;;;;;5029910;28;20052;-65
2024/01/04 07:27:43;;;;;;;3.00;1.43;;;;;;;;;;5029324;28;20029;-65
2024/01/04 07:30:10;;;;;;;4.50;1.90;;;;;;;;;;5029569;28;20030;-65
2024/01/04 07:32:35;;;;;;;4.47;1.83;;;;;;;;;;5029749;28;20033;-65
2024/01/04 07:35:01;;;;;;;5.13;1.60;;;;;;;;;;5029509;28;20033;-65
2024/01/04 07:37:26;;;;;;;5.07;1.70;;;;;;;;;;5028698;28;20025;-65
2024/01/04 07:39:52;;;;;;;3.17;1.40;;;;;;;;;;5028852;28;20044;-65
2024/01/04 07:42:18;;;;;;;4.20;1.40;;;;;;;;;;5029616;28;20053;-65
2024/01/04 07:44:43;;;;;;;4.60;1.40;;;;;;;;;;5028729;28;20078;-65
2024/01/04 07:47:09;;;;;;;4.90;1.80;;;;;;;;;;5029040;28;20791;-64
2024/01/04 07:49:34;;;;;;;5.67;1.70;;;;;;;;;;5029718;28;20044;-65
2024/01/04 07:51:59;;;;;;;5.27;1.97;;;;;;;;;;5029331;28;20033;-65
2024/01/04 07:54:26;;;;;;;2.83;1.30;;;;;;;;;;5029359;28;20018;-65
2024/01/04 07:56:51;;;;;;;5.13;1.50;;;;;;;;;;5029256;28;20079;-65
2024/01/04 07:59:16;;;;;;;3.43;1.60;;;;;;;;;;5029131;28;20355;-65
2024/01/04 08:01:42;;;;;;;6.70;1.77;;;;;;;;;;5027713;28;20021;-65
2024/01/04 08:04:07;;;;;;;4.03;1.30;;;;;;;;;;5029000;28;20025;-65
2024/01/04 08:06:32;;;;;;;4.43;1.70;;;;;;;;;;5027834;28;20095;-65
2024/01/04 08:08:57;;;;;;;4.40;1.87;;;;;;;;;;5028310;28;20021;-65
2024/01/04 08:11:23;;;;;;;7.23;2.30;;;;;;;;;;5028436;28;20108;-65
2024/01/04 08:13:49;;;;;;;6.17;2.17;;;;;;;;;;5027747;28;20097;-65
2024/01/04 08:16:15;;;;;;;6.10;2.40;;;;;;;;;;5028027;28;20033;-65
2024/01/04 08:18:40;;;;;;;5.33;2.40;;;;;;;;;;5028183;28;20104;-64
2024/01/04 08:21:05;;;;;;;5.13;2.37;;;;;;;;;;5029481;28;20032;-65
2024/01/04 08:23:31;;;;;;;7.47;2.20;;;;;;;;;;5028662;28;20057;-65
2024/01/04 08:25:56;;;;;;;8.40;2.23;;;;;;;;;;5028630;28;20018;-65
2024/01/04 08:28:21;;;;;;;7.07;2.30;;;;;;;;;;5029345;28;20079;-65
2024/01/04 08:30:47;;;;;;;5.20;1.93;;;;;;;;;;5027396;28;20031;-65
2024/01/04 08:33:12;;;;;;;6.50;2.20;;;;;;;;;;5029085;28;20030;-65
2024/01/04 08:35:37;;;;;;;5.53;2.23;;;;;;;;;;5028710;28;20061;-65
2024/01/04 08:38:02;;;;;;;5.30;2.07;;;;;;;;;;5028480;28;20041;-65
2024/01/04 08:40:28;;;;;;;11.23;2.00;;;;;;;;;;5028529;28;20021;-65
2024/01/04 08:42:54;;;;;;;4.50;1.70;;;;;;;;;;5028644;28;20010;-65
2024/01/04 08:45:19;;;;;;;5.73;1.97;;;;;;;;;;5028942;28;20054;-65
2024/01/04 08:47:44;;;;;;;4.60;2.00;;;;;;;;;;5028952;28;20033;-64
2024/01/04 08:50:11;;;;;;;4.07;1.83;;;;;;;;;;5027140;28;20033;-65
2024/01/04 08:52:36;;;;;;;8.60;2.10;;;;;;;;;;5028003;28;20481;-64
2024/01/04 08:55:02;;;;;;;4.83;1.80;;;;;;;;;;5028932;28;20065;-65
2024/01/04 08:57:28;;;;;;;6.00;1.90;;;;;;;;;;5028512;28;20025;-65
2024/01/04 08:59:53;;;;;;;6.23;2.17;;;;;;;;;;5028287;28;20041;-64
2024/01/04 09:02:18;;;;;;;6.13;1.90;;;;;;;;;;5027386;28;20394;-64
2024/01/04 09:04:44;;;;;;;5.27;2.00;;;;;;;;;;5027197;28;20025;-64
2024/01/04 09:07:09;;;;;;;7.57;2.40;;;;;;;;;;5029090;28;20032;-65
2024/01/04 09:09:34;;;;;;;7.63;2.23;;;;;;;;;;5031424;28;20044;-64
2024/01/04 09:12:00;;;;;;;5.27;2.40;;;;;;;;;;5031913;28;20036;-65
2024/01/04 09:14:25;;;;;;;7.20;2.50;;;;;;;;;;5029214;28;20029;-64
2024/01/04 09:16:50;;;;;;;4.07;1.70;;;;;;;;;;5031992;28;20444;-64
2024/01/04 09:19:17;;;;;;;3.07;1.30;;;;;;;;;;5031477;28;20080;-64
2024/01/04 09:21:49;;;;;;;3.40;1.40;;;;;;;;;;5032198;28;20114;-64
2024/01/04 09:24:15;;;;;;;6.43;1.93;;;;;;;;;;5031814;28;20030;-64
2024/01/04 09:26:43;;;;;;;4.97;1.40;;;;;;;;;;5031249;28;20454;-64
2024/01/04 09:29:09;;;;;;;4.10;1.20;;;;;;;;;;5031731;28;20110;-64
2024/01/04 09:31:34;;;;;;;3.57;1.20;;;;;;;;;;5032094;28;20120;-64
2024/01/04 09:34:00;;;;;;;3.93;1.40;;;;;;;;;;5031186;28;20104;-64
2024/01/04 09:36:25;;;;;;;5.73;1.30;;;;;;;;;;5031938;28;20018;-63
2024/01/04 09:38:50;;;;;;;4.00;1.30;;;;;;;;;;5031890;28;20029;-64
2024/01/04 09:41:25;;;;;;;4.60;1.23;;;;;;;;;;5031419;28;20434;-64
2024/01/04 09:43:55;;;;;;;4.40;1.30;;;;;;;;;;5030480;28;20032;-64
2024/01/04 09:46:21;;;;;;;2.43;1.00;;;;;;;;;;5026578;28;20021;-64
2024/01/04 09:48:52;;;;;;;2.87;1.00;;;;;;;;;;5031853;28;20025;-64
2024/01/04 09:51:18;;;;;;;4.70;1.40;;;;;;;;;;5030762;28;20018;-64
2024/01/04 09:53:44;;;;;;;4.10;1.20;;;;;;;;;;5031600;28;20029;-64
2024/01/04 09:56:14;;;;;;;3.50;1.30;;;;;;;;;;5031738;28;20028;-64
2024/01/04 09:58:39;;;;;;;2.20;0.90;;;;;;;;;;5030612;28;20021;-63
2024/01/04 10:01:05;;;;;;;3.27;1.00;;;;;;;;;;5028934;28;20025;-64
2024/01/04 10:03:30;;;;;;;7.33;1.50;;;;;;;;;;5031286;28;20041;-63
2024/01/04 10:05:56;;;;;;;2.83;1.10;;;;;;;;;;5031904;28;20025;-63
2024/01/04 10:08:25;;;;;;;5.40;1.00;;;;;;;;;;5031395;28;20108;-64
2024/01/04 10:10:52;;;;;;;4.17;1.43;;;;;;;;;;5030539;28;20032;-64
2024/01/04 10:13:17;;;;;;;5.37;1.60;;;;;;;;;;5028402;28;20025;-64
2024/01/04 10:15:43;;;;;;;4.10;1.40;;;;;;;;;;5031042;28;20074;-63
2024/01/04 10:18:12;;;;;;;4.20;1.47;;;;;;;;;;5029559;28;20456;-63
2024/01/04 10:20:37;;;;;;;4.43;1.30;;;;;;;;;;5030369;28;20033;-63
2024/01/04 10:23:04;;;;;;;5.30;1.70;;;;;;;;;;5031164;28;20100;-63
2024/01/04 10:25:29;;;;;;;5.23;1.50;;;;;;;;;;5031179;28;20458;-63
2024/01/04 10:27:56;;;;;;;4.13;1.33;;;;;;;;;;5029459;28;20026;-64
2024/01/04 10:30:21;;;;;;;6.47;1.70;;;;;;;;;;5028885;28;20029;-64
2024/01/04 10:32:50;;;;;;;5.67;1.90;;;;;;;;;;5028113;28;20022;-64
2024/01/04 10:35:29;;;;;;;5.33;1.80;;;;;;;;;;5030099;28;20418;-63
2024/01/04 10:38:01;;;;;;;3.93;1.47;;;;;;;;;;5030528;28;20209;-64
2024/01/04 10:40:26;;;;;;;5.53;1.77;;;;;;;;;;5030419;28;20029;-63
2024/01/04 10:42:53;;;;;;;4.97;1.43;;;;;;;;;;5028509;28;20055;-65
2024/01/04 10:45:27;;;;;;;5.77;1.53;;;;;;;;;;5030673;28;20071;-64
2024/01/04 10:47:52;;;;;;;6.27;1.47;;;;;;;;;;5030345;28;20025;-63
2024/01/04 10:50:18;;;;;;;6.27;1.70;;;;;;;;;;5030520;28;20014;-65
2024/01/04 10:52:46;;;;;;;5.87;1.70;;;;;;;;;;5029935;28;20462;-64
2024/01/04 10:55:12;;;;;;;8.10;1.90;;;;;;;;;;5013878;28;20544;-64
2024/01/04 10:57:39;;;;;;;3.87;1.80;;;;;;;;;;5029901;28;20025;-64
2024/01/04 11:00:07;;;;;;;4.90;1.77;;;;;;;;;;5029904;28;20669;-64
2024/01/04 11:02:33;;;;;;;3.47;1.47;;;;;;;;;;5028931;28;20075;-64
2024/01/04 11:04:59;;;;;;;4.97;1.60;;;;;;;;;;5029913;28;20024;-64
2024/01/04 11:07:25;;;;;;;4.70;1.50;;;;;;;;;;5029611;28;20393;-63
2024/01/04 11:09:50;;;;;;;6.03;1.93;;;;;;;;;;5029388;28;20713;-63
2024/01/04 11:12:16;;;;;;;6.07;1.77;;;;;;;;;;5026907;28;20025;-63
2024/01/04 11:14:41;;;;;;;5.70;1.50;;;;;;;;;;5029982;28;20041;-63
2024/01/04 11:17:06;;;;;;;3.90;1.20;;;;;;;;;;5029685;28;20518;-63
2024/01/04 11:19:35;;;;;;;3.70;1.43;;;;;;;;;;5029741;28;20576;-64
2024/01/04 11:22:21;;;;;;;4.93;1.37;;;;;;;;;;5029897;28;20057;-63
2024/01/04 11:24:46;;;;;;;2.27;1.00;;;;;;;;;;5028472;28;20022;-64
2024/01/04 11:27:16;;;;;;;4.17;1.57;;;;;;;;;;5027946;28;20025;-63
2024/01/04 11:29:42;;;;;;;5.70;1.30;;;;;;;;;;5027504;28;20088;-63
2024/01/04 11:32:08;;;;;;;4.23;1.47;;;;;;;;;;5029399;28;20029;-64
2024/01/04 11:34:33;;;;;;;3.67;1.57;;;;;;;;;;5028485;28;20067;-63
2024/01/04 11:37:27;;;;;;;7.43;2.57;;;;;;;;;;5029327;28;20021;-63
2024/01/04 11:39:53;;;;;;;4.83;2.00;;;;;;;;;;5015928;28;20037;-63
2024/01/04 11:42:19;;;;;;;7.97;2.00;;;;;;;;;;5026998;28;20039;-63
2024/01/04 11:44:57;;;;;;;7.93;1.80;;;;;;;;;;5029451;28;20013;-63
2024/01/04 11:47:26;;;;;;;2.87;1.10;;;;;;;;;;5026876;28;20025;-63
2024/01/04 11:50:00;;;;;;;5.73;1.40;;;;;;;;;;5027959;28;20508;-63
2024/01/04 11:52:26;;;;;;;3.60;1.43;;;;;;;;;;5026898;28;20014;-63
2024/01/04 11:54:52;;;;;;;3.67;1.50;;;;;;;;;;5029267;28;20029;-63
2024/01/04 11:57:18;;;;;;;4.50;1.50;;;;;;;;;;5029130;28;20025;-63
2024/01/04 11:59:43;;;;;;;3.10;1.20;;;;;;;;;;5028622;28;20374;-63
2024/01/04 12:02:19;;;;;;;4.70;1.30;;;;;;;;;;5029302;28;20029;-63
2024/01/04 12:04:44;;;;;;;3.00;1.10;;;;;;;;;;5029466;28;20390;-63
2024/01/04 12:07:10;;;;;;;2.33;1.20;;;;;;;;;;5028886;28;20052;-63
2024/01/04 12:09:36;;;;;;;3.20;1.27;;;;;;;;;;5028728;28;20013;-63
2024/01/04 12:12:01;;;;;;;4.80;1.30;;;;;;;;;;5029097;28;20474;-63
2024/01/04 12:14:27;;;;;;;5.40;1.40;;;;;;;;;;5006889;28;20478;-64
2024/01/04 12:16:52;;;;;;;4.40;1.37;;;;;;;;;;5027873;28;20021;-63
2024/01/04 12:19:17;;;;;;;3.90;1.37;;;;;;;;;;5028785;28;20045;-63
2024/01/04 12:21:45;;;;;;;3.37;1.30;;;;;;;;;;5028928;28;20130;-63
2024/01/04 12:24:10;;;;;;;3.73;1.43;;;;;;;;;;5028845;28;20125;-63
2024/01/04 12:26:36;;;;;;;4.50;1.50;;;;;;;;;;5028026;28;20100;-63
2024/01/04 12:29:01;;;;;;;2.80;1.30;;;;;;;;;;5028476;28;20033;-63
2024/01/04 12:31:26;;;;;;;5.20;1.50;;;;;;;;;;5028023;28;20074;-63
2024/01/04 12:33:55;;;;;;;4.07;1.30;;;;;;;;;;5026828;28;20026;-64
2024/01/04 12:36:24;;;;;;;9.20;1.60;;;;;;;;;;5029254;28;20108;-64
2024/01/04 12:38:50;;;;;;;5.67;1.73;;;;;;;;;;5026887;28;20032;-64
2024/01/04 12:41:25;;;;;;;3.40;1.40;;;;;;;;;;5028681;28;20030;-64
2024/01/04 12:43:53;;;;;;;3.20;1.50;;;;;;;;;;5032492;28;20013;-64
2024/01/04 12:46:19;;;;;;;3.83;1.53;;;;;;;;;;5032757;28;20347;-64
2024/01/04 12:48:44;;;;;;;5.17;1.70;;;;;;;;;;5032434;28;20033;-64
2024/01/04 12:51:14;;;;;;;6.07;1.63;;;;;;;;;;5030322;28;20048;-63
2024/01/04 12:53:41;;;;;;;4.27;1.40;;;;;;;;;;5032759;28;20081;-64
2024/01/04 12:56:07;;;;;;;4.07;1.53;;;;;;;;;;5030033;28;20029;-64
2024/01/04 12:58:33;;;;;;;3.33;1.50;;;;;;;;;;5032416;28;20032;-64
2024/01/04 13:00:58;;;;;;;4.50;1.57;;;;;;;;;;5032030;28;20025;-64
2024/01/04 13:03:23;;;;;;;7.00;1.80;;;;;;;;;;5032431;28;20032;-63
2024/01/04 13:05:49;;;;;;;3.00;1.50;;;;;;;;;;5032403;28;20017;-64
2024/01/04 13:08:14;;;;;;;3.67;1.50;;;;;;;;;;5031409;28;20041;-64
2024/01/04 13:10:39;;;;;;;2.87;1.20;;;;;;;;;;5030667;28;20096;-64
2024/01/04 13:13:04;;;;;;;3.90;1.57;;;;;;;;;;5032065;28;20029;-64
2024/01/04 13:15:30;;;;;;;6.60;1.70;;;;;;;;;;5031975;28;20024;-64
2024/01/04 13:17:55;;;;;;;3.40;1.50;;;;;;;;;;5032199;28;20041;-64
2024/01/04 13:20:21;;;;;;;5.40;1.37;;;;;;;;;;5031720;28;20053;-64
2024/01/04 13:22:46;;;;;;;5.87;1.60;;;;;;;;;;5032102;28;20080;-64
2024/01/04 13:25:12;;;;;;;5.37;1.43;;;;;;;;;;5031522;28;20109;-64
2024/01/04 13:27:37;;;;;;;5.10;1.57;;;;;;;;;;5031093;28;20079;-64
2024/01/04 13:30:03;;;;;;;4.20;1.50;;;;;;;;;;5032375;28;20091;-64
2024/01/04 13:32:28;;;;;;;5.37;1.77;;;;;;;;;;5031249;28;20105;-64
2024/01/04 13:34:53;;;;;;;3.77;1.53;;;;;;;;;;5032135;28;20057;-64
2024/01/04 13:37:18;;;;;;;3.90;1.40;;;;;;;;;;5031925;28;20409;-64
2024/01/04 13:39:44;;;;;;;4.23;1.27;;;;;;;;;;5029753;28;20026;-64
2024/01/04 13:42:09;;;;;;;4.80;1.70;;;;;;;;;;5031148;28;20028;-64
2024/01/04 13:44:35;;;;;;;4.00;1.47;;;;;;;;;;5031655;28;20413;-64
2024/01/04 13:47:00;;;;;;;4.47;1.30;;;;;;;;;;5031082;28;20017;-64
2024/01/04 13:49:25;;;;;;;3.60;1.60;;;;;;;;;;5031512;28;20132;-64
2024/01/04 13:51:51;;;;;;;4.97;1.80;;;;;;;;;;5031332;28;20116;-64
2024/01/04 13:54:18;;;;;;;5.30;1.80;;;;;;;;;;5030895;28;20036;-64
2024/01/04 13:56:43;;;;;;;5.20;1.47;;;;;;;;;;5030225;28;20462;-64
2024/01/04 13:59:09;;;;;;;5.53;1.60;;;;;;;;;;5030120;28;20030;-64
2024/01/04 14:01:34;;;;;;;4.50;1.83;;;;;;;;;;5031497;28;20150;-64
2024/01/04 14:03:59;;;;;;;3.23;1.40;;;;;;;;;;5031008;28;20028;-64
2024/01/04 14:06:24;;;;;;;5.73;1.67;;;;;;;;;;5030935;28;20076;-64
2024/01/04 14:08:52;;;;;;;3.67;1.50;;;;;;;;;;5031017;28;20072;-64
2024/01/04 14:11:18;;;;;;;4.67;1.60;;;;;;;;;;5030762;28;20057;-64
2024/01/04 14:13:43;;;;;;;4.77;1.53;;;;;;;;;;5030916;28;20134;-64
2024/01/04 14:16:08;;;;;;;3.33;1.37;;;;;;;;;;5030343;28;20363;-64
2024/01/04 14:18:34;;;;;;;4.17;1.40;;;;;;;;;;5030738;28;20033;-64
2024/01/04 14:20:59;;;;;;;7.23;1.53;;;;;;;;;;5030491;28;20789;-64
2024/01/04 14:23:24;;;;;;;5.17;1.40;;;;;;;;;;5030132;28;20092;-64
2024/01/04 14:25:49;;;;;;;3.97;1.70;;;;;;;;;;5030717;28;20079;-64
2024/01/04 14:28:15;;;;;;;3.07;1.60;;;;;;;;;;5030901;28;20021;-64
2024/01/04 14:30:41;;;;;;;4.17;1.50;;;;;;;;;;5030460;28;20062;-64
2024/01/04 14:33:06;;;;;;;6.27;1.60;;;;;;;;;;5030050;28;20029;-64
2024/01/04 14:35:31;;;;;;;6.33;1.87;;;;;;;;;;5030268;28;20370;-64